Aviation Digital Data Service (ADDS)

Output produced by METARs form (0007 UTC 26 June 2019)
found at http://aviationweather.gov/metar/data/
 
KGLS 252320Z 2600/2624 14005KT P6SM VCSH BKN100 OVC120 
     TEMPO 2600/2602 -RA 
     FM260200 09010KT P6SM SCT030 BKN150 
     FM260500 13013KT P6SM FEW020 BKN040 
     FM261200 14011KT P6SM VCTS BKN020 BKN035CB 
     FM261700 13010KT P6SM VCTS SCT025 BKN035CB